createdAt,value
2019-02-06T00:04:08.231Z,69.63
2019-02-06T00:09:10.663Z,69.51
2019-02-06T00:14:13.125Z,69.44
2019-02-06T00:19:15.548Z,69.44
2019-02-06T00:24:18.007Z,69.14
2019-02-06T00:29:20.441Z,69.19
2019-02-06T00:34:22.887Z,69.12
2019-02-06T00:39:25.331Z,68.94
2019-02-06T00:44:27.815Z,68.82
2019-02-06T00:49:30.275Z,68.65
2019-02-06T00:54:33.454Z,68.45
2019-02-06T00:59:35.907Z,68.22
2019-02-06T01:04:38.472Z,68.03
2019-02-06T01:09:40.912Z,67.85
2019-02-06T01:14:43.351Z,67.79
2019-02-06T01:19:45.793Z,67.74
2019-02-06T01:24:48.252Z,67.56
2019-02-06T01:29:50.689Z,67.42
2019-02-06T01:34:53.141Z,67.25
2019-02-06T01:39:55.588Z,67.16
2019-02-06T01:44:58.132Z,67.24
2019-02-06T01:50:00.520Z,67.24
2019-02-06T01:55:02.970Z,67.50
2019-02-06T02:00:20.510Z,67.56
2019-02-06T02:05:22.960Z,67.50
2019-02-06T02:10:25.433Z,67.52
2019-02-06T02:15:28.037Z,67.70
2019-02-06T02:20:30.488Z,67.75
2019-02-06T02:25:32.923Z,67.81
2019-02-06T02:30:41.465Z,67.98
2019-02-06T02:35:43.906Z,68.12
2019-02-06T02:40:46.783Z,68.33
2019-02-06T02:45:49.232Z,68.35
2019-02-06T02:50:51.669Z,68.31
2019-02-06T02:55:54.089Z,68.38
2019-02-06T03:01:05.735Z,68.52
2019-02-06T03:06:08.063Z,68.68
2019-02-06T03:11:10.508Z,68.74
2019-02-06T03:16:12.946Z,68.82
2019-02-06T03:21:15.499Z,69.18
2019-02-06T03:26:17.941Z,69.20
2019-02-06T03:31:20.390Z,69.22
2019-02-06T03:36:22.823Z,69.59
2019-02-06T03:41:25.265Z,69.96
2019-02-06T03:46:27.706Z,70.32
2019-02-06T03:51:30.160Z,70.80
2019-02-06T03:56:32.604Z,70.93
2019-02-06T04:01:35.071Z,70.92
2019-02-06T04:06:37.517Z,70.99
2019-02-06T04:11:39.966Z,71.15
2019-02-06T04:16:42.456Z,71.36
2019-02-06T04:21:44.861Z,71.28
2019-02-06T04:26:47.302Z,71.28
2019-02-06T04:31:49.736Z,71.08
2019-02-06T04:36:52.187Z,71.36
2019-02-06T04:41:54.635Z,71.30
2019-02-06T04:46:57.070Z,71.33
2019-02-06T04:51:59.517Z,71.21
2019-02-06T04:57:01.973Z,71.10
2019-02-06T05:02:04.411Z,71.49
2019-02-06T05:07:18.367Z,71.57
2019-02-06T05:12:09.704Z,71.60
2019-02-06T05:17:11.750Z,71.63
2019-02-06T05:22:14.198Z,71.61
2019-02-06T05:27:16.651Z,71.66
2019-02-06T05:32:19.270Z,71.51
2019-02-06T05:37:31.652Z,71.19
2019-02-06T05:42:24.144Z,71.58
2019-02-06T05:47:26.598Z,71.73
2019-02-06T05:52:29.139Z,71.62
2019-02-06T05:57:31.593Z,71.68
2019-02-06T06:02:34.046Z,71.60
2019-02-06T06:07:44.449Z,71.87
2019-02-06T06:12:38.949Z,71.73
2019-02-06T06:17:41.440Z,71.83
2019-02-06T06:22:43.948Z,71.69
2019-02-06T06:27:46.387Z,71.70
2019-02-06T06:32:48.980Z,71.64
2019-02-06T06:38:01.264Z,71.48
2019-02-06T06:42:53.723Z,71.28
2019-02-06T06:47:56.165Z,71.15
2019-02-06T06:52:58.613Z,71.06
2019-02-06T06:58:01.051Z,70.90
2019-02-06T07:03:03.504Z,70.70
2019-02-06T07:08:09.567Z,70.50
2019-02-06T07:13:08.379Z,70.18
2019-02-06T07:18:10.818Z,69.89
2019-02-06T07:23:13.271Z,69.46
2019-02-06T07:28:15.712Z,69.10
2019-02-06T07:33:18.157Z,68.78
2019-02-06T07:38:24.395Z,68.42
2019-02-06T07:43:23.077Z,67.85
2019-02-06T07:48:25.588Z,67.03
2019-02-06T07:53:28.035Z,66.10
2019-02-06T07:58:30.508Z,65.32
2019-02-06T08:03:32.951Z,64.79
2019-02-06T08:08:36.436Z,64.09
2019-02-06T08:13:37.849Z,63.02
2019-02-06T08:18:40.304Z,62.28
2019-02-06T08:23:42.855Z,61.33
2019-02-06T08:28:45.186Z,60.56
2019-02-06T08:33:47.637Z,59.73
2019-02-06T08:38:50.474Z,59.46
2019-02-06T08:43:52.523Z,59.12
2019-02-06T08:48:54.975Z,58.72
2019-02-06T08:53:57.425Z,58.71
2019-02-06T08:58:59.880Z,58.56
2019-02-06T09:04:02.328Z,58.26
2019-02-06T09:09:04.776Z,58.49
2019-02-06T09:14:07.221Z,58.26
2019-02-06T09:19:09.655Z,57.84
2019-02-06T09:24:12.101Z,56.49
2019-02-06T09:29:14.543Z,55.09
2019-02-06T09:34:16.996Z,53.47
2019-02-06T09:39:19.657Z,52.55
2019-02-06T09:44:22.107Z,52.92
2019-02-06T09:49:24.551Z,53.22
2019-02-06T09:54:27.004Z,52.33
2019-02-06T09:59:29.470Z,52.67
2019-02-06T10:04:31.920Z,52.99
2019-02-06T10:09:34.384Z,53.41
2019-02-06T10:14:36.828Z,53.47
2019-02-06T10:19:42.407Z,53.08
2019-02-06T10:24:42.228Z,53.37
2019-02-06T10:29:44.689Z,53.92
2019-02-06T10:34:47.136Z,53.99
2019-02-06T10:39:49.585Z,54.17
2019-02-06T10:44:52.032Z,54.07
2019-02-06T10:49:54.483Z,54.24
2019-02-06T10:54:56.949Z,54.77
2019-02-06T10:59:59.387Z,54.94
2019-02-06T11:05:01.840Z,55.32
2019-02-06T11:10:04.295Z,55.70
2019-02-06T11:15:06.724Z,55.83
2019-02-06T11:20:09.246Z,56.06
2019-02-06T11:25:11.685Z,56.36
2019-02-06T11:30:16.839Z,56.29
2019-02-06T11:35:19.283Z,56.44
2019-02-06T11:40:21.731Z,56.25
2019-02-06T11:45:24.177Z,56.33
2019-02-06T11:50:32.595Z,56.47
2019-02-06T11:55:35.043Z,56.29
2019-02-06T12:00:40.417Z,56.28
2019-02-06T12:05:42.856Z,56.41
2019-02-06T12:10:45.303Z,56.48
2019-02-06T12:15:47.742Z,56.37
2019-02-06T12:20:50.197Z,56.53
2019-02-06T12:25:52.632Z,56.27
2019-02-06T12:30:56.190Z,56.08
2019-02-06T12:35:57.540Z,55.88
2019-02-06T12:40:59.993Z,55.61
2019-02-06T12:46:02.464Z,55.94
2019-02-06T12:51:04.981Z,55.67
2019-02-06T12:56:07.418Z,55.49
2019-02-06T13:01:09.898Z,55.64
2019-02-06T13:06:12.354Z,55.56
2019-02-06T13:11:14.780Z,55.65
2019-02-06T13:16:17.235Z,56.18
2019-02-06T13:21:19.708Z,55.52
2019-02-06T13:26:22.174Z,55.10
2019-02-06T13:31:24.619Z,54.21
2019-02-06T13:36:27.078Z,53.14
2019-02-06T13:41:29.533Z,52.66
2019-02-06T13:46:31.982Z,53.56
2019-02-06T13:51:34.425Z,53.88
2019-02-06T13:56:36.886Z,54.42
2019-02-06T14:01:39.334Z,54.66
2019-02-06T14:06:41.898Z,54.47
2019-02-06T14:11:44.352Z,54.28
2019-02-06T14:16:46.794Z,53.88
2019-02-06T14:21:49.257Z,53.03
2019-02-06T14:26:51.698Z,52.51
2019-02-06T14:32:15.528Z,52.55
2019-02-06T14:37:33.711Z,52.07
2019-02-06T14:43:00.825Z,52.69
2019-02-06T14:48:09.075Z,52.36
2019-02-06T14:53:14.325Z,52.34
2019-02-06T14:58:37.893Z,52.39
2019-02-06T15:03:43.171Z,52.66
2019-02-06T15:08:45.628Z,53.13
2019-02-06T15:14:18.940Z,53.17
2019-02-06T15:19:24.077Z,53.39
2019-02-06T15:24:45.134Z,53.37
2019-02-06T15:29:56.345Z,53.46
2019-02-06T15:35:07.950Z,53.39
2019-02-06T15:40:34.446Z,53.56
2019-02-06T15:45:52.128Z,53.18
2019-02-06T15:51:06.505Z,53.68
2019-02-06T15:56:08.971Z,53.55
2019-02-06T16:01:26.753Z,53.52
2019-02-06T16:06:35.001Z,54.09
2019-02-06T16:11:42.410Z,54.74
2019-02-06T16:17:10.920Z,55.36
2019-02-06T16:22:22.567Z,56.13
2019-02-06T16:27:28.032Z,56.34
2019-02-06T16:32:36.502Z,56.92
2019-02-06T16:37:57.263Z,57.39
2019-02-06T16:43:23.893Z,58.18
2019-02-06T16:48:29.286Z,58.52
2019-02-06T16:53:53.601Z,58.95
2019-02-06T16:58:59.043Z,59.15
2019-02-06T17:04:22.896Z,59.62
2019-02-06T17:09:40.451Z,59.91
2019-02-06T17:14:48.875Z,60.38
2019-02-06T17:20:16.110Z,60.59
2019-02-06T17:25:18.563Z,60.68
2019-02-06T17:30:23.707Z,60.88
2019-02-06T17:35:41.303Z,61.51
2019-02-06T17:40:43.764Z,61.71
2019-02-06T17:46:01.169Z,61.92
2019-02-06T17:51:21.796Z,62.18
2019-02-06T17:56:24.243Z,62.45
2019-02-06T18:01:26.730Z,62.47
2019-02-06T18:06:29.192Z,62.99
2019-02-06T18:11:31.652Z,62.71
2019-02-06T18:16:34.102Z,63.21
2019-02-06T18:21:36.561Z,63.59
2019-02-06T18:26:39.045Z,63.62
2019-02-06T18:31:41.512Z,63.58
2019-02-06T18:36:44.033Z,63.61
2019-02-06T18:41:46.535Z,63.86
2019-02-06T18:46:48.979Z,64.14
2019-02-06T18:51:51.454Z,63.99
2019-02-06T18:56:53.908Z,63.92
2019-02-06T19:01:56.395Z,64.10
2019-02-06T19:06:58.842Z,63.64
2019-02-06T19:12:01.273Z,63.34
2019-02-06T19:17:03.756Z,63.27
2019-02-06T19:22:06.216Z,63.23
2019-02-06T19:27:08.700Z,63.32
2019-02-06T19:32:11.169Z,63.39
2019-02-06T19:37:13.638Z,63.17
2019-02-06T19:42:16.090Z,63.08
2019-02-06T19:47:18.658Z,63.24
2019-02-06T19:52:21.058Z,63.28
2019-02-06T19:57:26.043Z,63.33
2019-02-06T20:02:26.017Z,63.33
2019-02-06T20:07:28.487Z,63.37
2019-02-06T20:12:30.981Z,63.55
2019-02-06T20:17:33.435Z,63.63
2019-02-06T20:22:35.890Z,63.56
2019-02-06T20:27:38.353Z,63.48
2019-02-06T20:32:40.837Z,63.15
2019-02-06T20:37:43.344Z,62.94
2019-02-06T20:42:45.797Z,62.84
2019-02-06T20:47:48.270Z,62.59
2019-02-06T20:52:50.731Z,62.68
2019-02-06T20:57:53.190Z,62.86
2019-02-06T21:02:55.644Z,62.88
2019-02-06T21:07:58.103Z,62.98
2019-02-06T21:13:00.560Z,63.06
2019-02-06T21:18:03.027Z,63.20
2019-02-06T21:23:05.489Z,63.33
2019-02-06T21:28:07.958Z,63.45
2019-02-06T21:33:10.427Z,63.79
2019-02-06T21:38:12.869Z,63.91
2019-02-06T21:43:15.369Z,64.38
2019-02-06T21:48:17.784Z,64.34
2019-02-06T21:53:20.244Z,64.58
2019-02-06T21:58:22.791Z,64.67
2019-02-06T22:03:25.255Z,64.89
2019-02-06T22:08:27.905Z,64.99
2019-02-06T22:13:30.337Z,65.14
2019-02-06T22:18:32.824Z,65.42
2019-02-06T22:23:36.047Z,65.78
2019-02-06T22:28:38.516Z,66.45
2019-02-06T22:33:40.959Z,66.83
2019-02-06T22:38:45.985Z,66.67
2019-02-06T22:43:48.428Z,66.46
2019-02-06T22:48:50.888Z,66.82
2019-02-06T22:53:53.372Z,67.45
2019-02-06T22:58:55.812Z,67.21
2019-02-06T23:03:58.261Z,67.04
2019-02-06T23:09:00.706Z,67.31
2019-02-06T23:14:03.163Z,67.22
2019-02-06T23:19:05.646Z,67.28
2019-02-06T23:24:08.084Z,67.55
2019-02-06T23:29:10.552Z,67.85
2019-02-06T23:34:12.994Z,67.85
2019-02-06T23:39:15.446Z,67.72
2019-02-06T23:44:28.341Z,67.63
2019-02-06T23:49:20.323Z,67.45
2019-02-06T23:54:22.789Z,67.15
2019-02-06T23:59:25.246Z,67.11
